Time;durP1;ratioP1;P1;durP2;ratioP2;P2;SDS_P1;SDS_P2;PMS_P1;PMS_P2;Temp;Humidity;BMP_temperature;BMP_pressure;BME280_temperature;BME280_humidity;BME280_pressure;Samples;Min_cycle;Max_cycle;Signal;HPM_P1;HPM_P2
2024/04/17 00:00:34;;;;;;;6.07;2.95;;;;;;;9.17;56.94;98783.28;5233753;27;94616;-81
2024/04/17 00:03:00;;;;;;;4.93;2.63;;;;;;;8.98;56.86;98760.69;5206220;27;94562;-81
2024/04/17 00:05:25;;;;;;;5.47;2.85;;;;;;;9.06;57.33;98768.97;5206085;27;94591;-81
2024/04/17 00:07:51;;;;;;;4.13;2.53;;;;;;;9.16;57.19;98785.06;5200815;27;97197;-81
2024/04/17 00:10:16;;;;;;;4.93;2.53;;;;;;;8.99;57.20;98772.84;5219537;27;97106;-80
2024/04/17 00:12:41;;;;;;;6.70;2.63;;;;;;;8.90;57.27;98744.56;5206401;27;94697;-80
2024/04/17 00:15:07;;;;;;;4.65;2.50;;;;;;;9.13;57.54;98790.44;5206322;27;93919;-81
2024/04/17 00:17:32;;;;;;;6.75;2.90;;;;;;;9.03;57.49;98778.78;5235149;26;94706;-78
2024/04/17 00:19:58;;;;;;;3.88;2.70;;;;;;;9.12;57.42;98796.63;5178867;27;97722;-79
2024/04/17 00:22:23;;;;;;;5.38;2.45;;;;;;;9.06;57.61;98796.94;5171698;27;94717;-78
2024/04/17 00:24:49;;;;;;;7.20;2.95;;;;;;;8.81;57.92;98763.31;5234001;26;93607;-77
2024/04/17 00:27:14;;;;;;;5.13;2.70;;;;;;;8.88;57.76;98769.94;5216891;27;94517;-78
2024/04/17 00:29:40;;;;;;;3.55;2.30;;;;;;;8.77;57.83;98746.09;5228456;27;94626;-78
2024/04/17 00:32:06;;;;;;;3.53;2.22;;;;;;;8.91;57.96;98774.19;5236087;26;94692;-78
2024/04/17 00:34:32;;;;;;;4.40;2.70;;;;;;;8.98;57.96;98786.84;5172855;27;94584;-81
2024/04/17 00:36:57;;;;;;;3.92;2.42;;;;;;;8.76;57.87;98758.34;5206202;27;94502;-81
2024/04/17 00:39:23;;;;;;;4.28;2.47;;;;;;;8.66;58.07;98745.81;5210012;27;94531;-78
2024/04/17 00:41:48;;;;;;;3.78;2.38;;;;;;;8.77;58.26;98767.88;5200829;27;94558;-78
2024/04/17 00:44:14;;;;;;;4.53;2.10;;;;;;;8.94;58.13;98784.50;5224554;27;94603;-78
2024/04/17 00:46:40;;;;;;;3.53;2.30;;;;;;;8.80;58.33;98780.78;5181740;27;97134;-78
2024/04/17 00:49:05;;;;;;;3.75;2.17;;;;;;;8.68;58.37;98763.13;5226206;27;94463;-78
2024/04/17 00:51:32;;;;;;;6.65;2.63;;;;;;;8.76;58.32;98781.06;5233562;27;94933;-78
2024/04/17 00:53:58;;;;;;;5.32;2.53;;;;;;;8.44;58.82;98746.91;5236245;27;94556;-78
2024/04/17 00:56:24;;;;;;;7.60;3.20;;;;;;;8.71;58.73;98794.34;5199473;27;97154;-79
2024/04/17 00:58:49;;;;;;;3.47;2.33;;;;;;;8.60;58.92;98779.19;5205964;27;94494;-79
2024/04/17 01:01:15;;;;;;;3.05;2.10;;;;;;;8.47;59.05;98757.22;5181783;27;94541;-79
2024/04/17 01:03:40;;;;;;;3.13;2.05;;;;;;;8.58;59.35;98783.66;5236021;26;94589;-78
2024/04/17 01:06:06;;;;;;;3.90;2.20;;;;;;;8.69;59.24;98793.56;5233332;27;94571;-78
2024/04/17 01:08:31;;;;;;;4.00;2.15;;;;;;;8.60;59.11;98773.13;5234216;26;97639;-78
2024/04/17 01:11:01;;;;;;;3.20;2.03;;;;;;;8.64;58.87;98768.56;5204203;27;95032;-78
2024/04/17 01:13:26;;;;;;;5.22;2.30;;;;;;;8.83;58.94;98806.81;5196890;27;94554;-78
2024/04/17 01:15:52;;;;;;;4.95;2.15;;;;;;;8.89;58.75;98800.41;5218696;27;94489;-78
2024/04/17 01:18:19;;;;;;;3.05;2.08;;;;;;;8.80;59.10;98793.03;5198871;27;97935;-78
2024/04/17 01:20:45;;;;;;;3.75;2.40;;;;;;;8.90;59.11;98816.94;5215984;27;94605;-78
2024/04/17 01:23:10;;;;;;;5.30;2.80;;;;;;;8.92;59.23;98813.34;5202548;27;93516;-78
2024/04/17 01:25:35;;;;;;;3.47;2.30;;;;;;;8.89;58.95;98795.19;5177524;27;97470;-78
2024/04/17 01:28:01;;;;;;;4.25;2.70;;;;;;;8.94;58.91;98802.81;5233607;27;94868;-78
2024/04/17 01:30:27;;;;;;;3.60;2.40;;;;;;;8.92;58.84;98810.72;5232689;27;94566;-78
2024/04/17 01:32:52;;;;;;;4.10;2.17;;;;;;;8.93;59.00;98808.94;5234141;27;94573;-78
2024/04/17 01:35:18;;;;;;;4.68;3.22;;;;;;;8.91;59.07;98811.66;5229041;27;97706;-78
2024/04/17 01:37:43;;;;;;;3.60;2.50;;;;;;;8.82;59.33;98805.13;5185849;27;97644;-78
2024/04/17 01:40:09;;;;;;;4.07;2.10;;;;;;;8.91;59.16;98823.91;5232803;27;94556;-79
2024/04/17 01:42:35;;;;;;;2.75;1.88;;;;;;;8.95;59.19;98822.81;5233683;27;94733;-78
2024/04/17 01:45:00;;;;;;;7.45;2.00;;;;;;;8.98;59.06;98827.88;5234736;26;94550;-78
2024/04/17 01:47:25;;;;;;;3.45;2.35;;;;;;;8.86;59.08;98807.59;5232233;27;94558;-78
2024/04/17 01:49:51;;;;;;;2.90;1.90;;;;;;;8.93;58.90;98809.81;5216016;27;94544;-78
2024/04/17 01:52:16;;;;;;;2.92;2.03;;;;;;;8.80;59.19;98782.56;5228413;27;95915;-78
2024/04/17 01:54:42;;;;;;;3.05;1.90;;;;;;;8.96;59.49;98822.75;5204584;27;97371;-78
2024/04/17 01:57:07;;;;;;;5.45;1.80;;;;;;;8.82;59.07;98781.56;5233736;27;94927;-79
2024/04/17 01:59:33;;;;;;;3.65;1.90;;;;;;;8.82;58.56;98785.97;5209251;27;94537;-79
2024/04/17 02:01:59;;;;;;;2.85;1.60;;;;;;;8.95;58.65;98815.78;5204658;27;94587;-79
2024/04/17 02:04:24;;;;;;;3.85;2.00;;;;;;;8.77;58.68;98782.72;5233343;27;94616;-79
2024/04/17 02:06:50;;;;;;;2.92;2.08;;;;;;;8.78;58.19;98794.88;5198974;27;97299;-78
2024/04/17 02:09:15;;;;;;;2.05;1.48;;;;;;;8.68;58.39;98788.44;5226029;27;94582;-78
2024/04/17 02:11:41;;;;;;;3.03;1.58;;;;;;;9.05;57.69;98845.00;5204233;27;94535;-78
2024/04/17 02:14:06;;;;;;;2.03;1.73;;;;;;;8.94;57.37;98824.59;5209682;27;94587;-78
2024/04/17 02:16:32;;;;;;;2.05;1.63;;;;;;;8.90;57.58;98832.66;5232907;27;94696;-78
2024/04/17 02:18:57;;;;;;;3.33;1.80;;;;;;;8.82;57.63;98835.69;5204959;27;94567;-78
2024/04/17 02:21:23;;;;;;;3.13;2.00;;;;;;;8.82;57.40;98840.91;5198540;27;95202;-78
2024/04/17 02:23:48;;;;;;;2.67;1.80;;;;;;;8.53;57.64;98808.34;5200994;27;95695;-78
2024/04/17 02:26:14;;;;;;;2.80;1.75;;;;;;;8.66;57.69;98829.50;5201592;27;97843;-78
2024/04/17 02:28:39;;;;;;;2.63;1.48;;;;;;;8.69;57.82;98843.28;5234680;27;94726;-78
2024/04/17 02:31:05;;;;;;;2.97;1.60;;;;;;;8.74;57.20;98854.38;5234042;26;94799;-78
2024/04/17 02:33:30;;;;;;;1.83;1.35;;;;;;;8.56;56.98;98840.44;5232175;27;97314;-78
2024/04/17 02:35:56;;;;;;;2.38;1.65;;;;;;;8.59;57.44;98857.75;5202931;27;98131;-78
2024/04/17 02:38:21;;;;;;;2.70;1.60;;;;;;;8.48;57.14;98849.56;5196572;27;94529;-78
2024/04/17 02:40:47;;;;;;;2.83;1.55;;;;;;;8.46;57.34;98854.88;5205964;27;94640;-78
2024/04/17 02:43:12;;;;;;;5.03;1.83;;;;;;;8.44;57.71;98855.88;5237103;27;94056;-78
2024/04/17 02:45:39;;;;;;;2.83;1.40;;;;;;;8.34;57.79;98871.13;5201268;27;97367;-78
2024/04/17 02:48:05;;;;;;;1.55;1.25;;;;;;;8.33;57.38;98859.81;5202867;27;94532;-79
2024/04/17 02:50:31;;;;;;;3.80;1.58;;;;;;;8.36;57.21;98861.44;5196592;27;94457;-78
2024/04/17 02:52:57;;;;;;;2.58;1.40;;;;;;;8.30;56.74;98851.28;5200755;27;97405;-78
2024/04/17 02:55:23;;;;;;;3.97;1.20;;;;;;;8.46;56.97;98874.94;5196743;27;94533;-78
2024/04/17 02:57:49;;;;;;;3.97;2.33;;;;;;;8.42;56.63;98876.88;5225775;27;94414;-78
2024/04/17 03:00:17;;;;;;;4.57;1.85;;;;;;;8.53;56.32;98894.66;5222756;27;94608;-79
2024/04/17 03:02:43;;;;;;;5.70;1.50;;;;;;;8.36;55.75;98851.00;5179434;27;97127;-78
2024/04/17 03:05:08;;;;;;;4.97;1.60;;;;;;;8.58;55.57;98901.38;5206450;27;97517;-78
2024/04/17 03:07:34;;;;;;;3.80;1.30;;;;;;;8.62;55.61;98894.22;5204802;27;94962;-78
2024/04/17 03:09:59;;;;;;;6.97;1.50;;;;;;;8.35;55.11;98842.31;5207250;27;94629;-79
2024/04/17 03:12:25;;;;;;;3.15;1.38;;;;;;;8.58;55.34;98888.28;5234783;26;94602;-78
2024/04/17 03:14:50;;;;;;;2.65;1.20;;;;;;;8.37;54.57;98852.66;5210515;26;97564;-78
2024/04/17 03:17:16;;;;;;;4.18;1.40;;;;;;;8.58;54.47;98880.44;5234224;26;94568;-78
2024/04/17 03:19:41;;;;;;;1.50;1.30;;;;;;;8.63;54.49;98885.44;5182846;27;94625;-78
2024/04/17 03:22:07;;;;;;;4.03;1.10;;;;;;;8.59;54.31;98892.59;5235071;27;94498;-78
2024/04/17 03:24:32;;;;;;;2.55;1.20;;;;;;;8.61;54.30;98877.69;5206184;27;94637;-78
2024/04/17 03:26:58;;;;;;;6.25;1.40;;;;;;;8.63;54.25;98888.06;5237117;26;94610;-77
2024/04/17 03:29:23;;;;;;;1.67;1.00;;;;;;;8.66;54.35;98900.97;5234613;27;94540;-79
2024/04/17 03:31:50;;;;;;;2.70;1.00;;;;;;;8.63;54.40;98881.97;5203071;27;96632;-78
2024/04/17 03:34:15;;;;;;;1.40;0.93;;;;;;;8.66;54.18;98897.53;5206497;27;94537;-78
2024/04/17 03:36:41;;;;;;;2.70;1.35;;;;;;;8.54;53.92;98871.03;5234518;26;94794;-79
2024/04/17 03:39:06;;;;;;;2.33;1.30;;;;;;;8.71;54.31;98904.22;5235093;27;94569;-78
2024/04/17 03:41:32;;;;;;;2.03;1.33;;;;;;;8.77;54.19;98905.69;5209827;27;94555;-78
2024/04/17 03:43:57;;;;;;;6.22;1.50;;;;;;;8.70;53.86;98907.78;5172965;27;97735;-78
2024/04/17 03:46:22;;;;;;;2.97;1.33;;;;;;;8.73;54.01;98917.25;5222211;27;94623;-78
2024/04/17 03:48:48;;;;;;;4.30;1.80;;;;;;;8.71;54.22;98913.84;5234796;26;93461;-79
2024/04/17 03:51:13;;;;;;;4.28;1.60;;;;;;;8.68;54.27;98912.22;5235720;27;94589;-78
2024/04/17 03:53:39;;;;;;;4.93;1.73;;;;;;;8.64;54.40;98907.22;5203925;27;97785;-78
2024/04/17 03:56:05;;;;;;;5.95;1.77;;;;;;;8.35;54.52;98852.75;5178177;27;94595;-80
2024/04/17 03:58:30;;;;;;;4.05;1.90;;;;;;;8.70;54.08;98913.00;5226896;27;94594;-79
2024/04/17 04:00:56;;;;;;;2.20;1.35;;;;;;;8.73;54.53;98925.94;5172082;27;96928;-79
2024/04/17 04:03:21;;;;;;;2.75;1.83;;;;;;;8.70;54.64;98922.63;5234684;26;94568;-79
2024/04/17 04:05:47;;;;;;;4.10;1.83;;;;;;;8.46;54.56;98872.34;5214304;27;94592;-79
2024/04/17 04:08:12;;;;;;;10.82;1.75;;;;;;;8.66;54.46;98911.44;5218332;26;94581;-79
2024/04/17 04:10:38;;;;;;;3.17;1.45;;;;;;;8.72;54.70;98941.69;5192843;27;97527;-79
2024/04/17 04:13:04;;;;;;;5.28;1.63;;;;;;;8.59;55.03;98925.75;5228890;27;94396;-79
2024/04/17 04:15:29;;;;;;;4.95;1.92;;;;;;;8.49;55.02;98911.41;5214933;27;94514;-79
2024/04/17 04:17:54;;;;;;;3.10;1.50;;;;;;;8.63;54.85;98947.38;5233150;27;94607;-80
2024/04/17 04:20:20;;;;;;;5.60;1.80;;;;;;;8.57;54.90;98931.03;5233603;26;96764;-79
2024/04/17 04:22:46;;;;;;;6.22;1.90;;;;;;;8.55;55.02;98934.66;5206030;27;97469;-79
2024/04/17 04:25:11;;;;;;;2.75;1.58;;;;;;;8.47;54.88;98924.56;5219862;27;94495;-79
2024/04/17 04:27:36;;;;;;;8.30;2.03;;;;;;;8.70;54.75;98951.41;5226869;27;94717;-78
2024/04/17 04:30:02;;;;;;;3.30;1.52;;;;;;;8.70;55.01;98952.25;5185148;27;94570;-79
2024/04/17 04:32:28;;;;;;;3.67;1.58;;;;;;;8.49;54.92;98930.56;5234443;27;94514;-79
2024/04/17 04:34:53;;;;;;;2.60;1.50;;;;;;;8.42;55.04;98913.47;5206045;27;94523;-78
2024/04/17 04:37:19;;;;;;;3.70;1.85;;;;;;;8.57;55.11;98938.91;5234620;27;94639;-79
2024/04/17 04:39:44;;;;;;;4.15;1.85;;;;;;;8.70;54.90;98972.34;5235466;26;94610;-79
2024/04/17 04:42:10;;;;;;;2.50;1.60;;;;;;;8.63;54.81;98956.06;5235703;27;94577;-78
2024/04/17 04:44:35;;;;;;;2.53;1.60;;;;;;;8.37;55.05;98918.88;5232836;26;94614;-79
2024/04/17 04:47:01;;;;;;;5.25;1.60;;;;;;;8.40;55.09;98931.00;5205227;27;94671;-79
2024/04/17 04:49:28;;;;;;;10.77;4.18;;;;;;;8.68;55.17;98967.16;5235168;26;93400;-79
2024/04/17 04:51:53;;;;;;;4.30;1.90;;;;;;;8.57;55.27;98956.38;5205280;27;94624;-79
2024/04/17 04:54:19;;;;;;;3.47;2.35;;;;;;;8.38;55.20;98909.28;5205038;27;95409;-79
2024/04/17 04:56:44;;;;;;;4.32;2.10;;;;;;;8.76;55.50;98977.28;5206149;27;94566;-79
2024/04/17 04:59:10;;;;;;;7.95;3.03;;;;;;;8.82;55.39;98967.34;5235354;27;94532;-79
2024/04/17 05:01:35;;;;;;;7.28;2.67;;;;;;;8.68;55.70;98937.53;5198900;27;94563;-79
2024/04/17 05:04:01;;;;;;;3.47;2.05;;;;;;;8.68;56.00;98942.78;5195854;27;94610;-79
2024/04/17 05:06:27;;;;;;;6.38;2.88;;;;;;;8.70;56.48;98952.25;5213123;27;94585;-78
2024/04/17 05:08:52;;;;;;;8.27;2.28;;;;;;;8.83;56.62;98974.28;5233826;27;93378;-79
2024/04/17 05:11:18;;;;;;;2.83;2.35;;;;;;;8.76;56.55;98961.56;5177295;27;97609;-79
2024/04/17 05:13:43;;;;;;;4.18;2.53;;;;;;;8.86;57.34;98986.38;5234153;27;94576;-79
2024/04/17 05:16:09;;;;;;;8.75;3.28;;;;;;;8.75;58.33;98999.09;5233537;26;94827;-79
2024/04/17 05:18:34;;;;;;;4.22;2.35;;;;;;;8.75;58.20;98972.94;5232151;27;94571;-79
2024/04/17 05:21:00;;;;;;;4.75;2.35;;;;;;;8.82;59.34;98988.28;5176343;27;97949;-79
2024/04/17 05:23:25;;;;;;;6.00;2.90;;;;;;;8.72;59.63;98963.47;5234124;27;95082;-79
2024/04/17 05:25:50;;;;;;;4.53;2.45;;;;;;;8.93;60.06;98989.53;5205198;27;94978;-79
2024/04/17 05:28:16;;;;;;;7.60;2.80;;;;;;;8.86;60.20;98980.28;5204946;27;94571;-78
2024/04/17 05:30:41;;;;;;;9.38;3.08;;;;;;;8.63;60.64;98952.59;5222075;26;97484;-79
2024/04/17 05:33:07;;;;;;;3.60;2.38;;;;;;;8.96;60.83;98990.25;5235421;27;94572;-78
2024/04/17 05:35:32;;;;;;;6.00;3.30;;;;;;;8.80;60.90;98961.34;5205152;27;94567;-79
2024/04/17 05:37:58;;;;;;;5.50;2.60;;;;;;;9.03;61.71;99007.34;5233505;27;94533;-78
2024/04/17 05:40:23;;;;;;;5.30;2.90;;;;;;;9.02;61.16;98978.63;5204145;27;97110;-78
2024/04/17 05:42:49;;;;;;;5.07;2.90;;;;;;;9.01;61.42;98993.47;5232631;27;94529;-79
2024/04/17 05:45:14;;;;;;;4.13;2.65;;;;;;;8.76;61.23;98967.66;5232749;27;94650;-78
2024/04/17 05:47:40;;;;;;;6.25;2.90;;;;;;;8.81;61.41;98959.56;5232501;27;94523;-78
2024/04/17 05:50:05;;;;;;;3.72;2.53;;;;;;;9.09;61.04;99016.66;5171338;27;97949;-77
2024/04/17 05:52:31;;;;;;;4.05;2.50;;;;;;;8.97;61.28;98993.72;5231404;27;94584;-79
2024/04/17 05:54:56;;;;;;;3.90;2.85;;;;;;;8.92;61.44;98998.31;5204609;27;94632;-78
2024/04/17 05:57:22;;;;;;;3.03;2.55;;;;;;;9.04;61.57;99009.03;5234483;26;97354;-78
2024/04/17 05:59:48;;;;;;;3.47;2.42;;;;;;;8.93;61.50;98989.53;5222056;27;97689;-78
2024/04/17 06:02:13;;;;;;;4.30;2.38;;;;;;;8.95;62.10;99014.69;5197896;27;94441;-78
2024/04/17 06:04:39;;;;;;;3.97;2.53;;;;;;;8.87;62.55;99010.75;5234989;27;94543;-78
2024/04/17 06:07:05;;;;;;;3.47;2.60;;;;;;;8.80;62.02;98990.13;5201456;27;97374;-78
2024/04/17 06:09:30;;;;;;;5.60;3.45;;;;;;;8.88;62.52;99021.16;5200948;27;97772;-78
2024/04/17 06:11:56;;;;;;;4.35;3.20;;;;;;;8.81;62.70;99011.91;5234308;26;94746;-80
2024/04/17 06:14:21;;;;;;;5.43;2.88;;;;;;;8.80;62.55;99021.53;5235239;27;94547;-79
2024/04/17 06:16:47;;;;;;;4.13;3.05;;;;;;;8.81;62.80;99014.50;5235888;26;93781;-78
2024/04/17 06:19:14;;;;;;;6.60;3.97;;;;;;;8.84;62.94;99020.47;5247333;26;94664;-78
2024/04/17 06:21:39;;;;;;;6.00;3.13;;;;;;;8.76;63.43;99025.22;5223489;26;94395;-78
2024/04/17 06:24:05;;;;;;;6.30;4.20;;;;;;;8.77;63.38;99024.28;5230343;27;94702;-78
2024/04/17 06:26:31;;;;;;;6.65;3.70;;;;;;;8.54;63.66;98985.28;5221876;27;95115;-78
2024/04/17 06:28:56;;;;;;;6.22;3.25;;;;;;;8.91;63.45;99026.25;5221489;27;94770;-79
2024/04/17 06:31:22;;;;;;;4.97;3.17;;;;;;;8.93;63.64;99029.66;5227348;27;94715;-78
2024/04/17 06:33:48;;;;;;;7.00;3.78;;;;;;;8.97;64.10;99023.34;5173193;27;94700;-79
2024/04/17 06:36:13;;;;;;;5.70;3.45;;;;;;;8.99;64.08;99013.66;5215373;27;95037;-79
2024/04/17 06:38:39;;;;;;;5.72;3.78;;;;;;;8.89;64.01;98994.06;5185056;27;95945;-78
2024/04/17 06:41:04;;;;;;;4.65;3.75;;;;;;;9.18;63.55;99029.31;5223174;26;94600;-79
2024/04/17 06:43:30;;;;;;;6.78;3.90;;;;;;;9.12;63.21;99016.50;5167997;27;93597;-78
2024/04/17 06:45:55;;;;;;;4.47;3.78;;;;;;;9.36;62.99;99024.09;5217894;27;94560;-78
2024/04/17 06:48:21;;;;;;;5.63;3.90;;;;;;;9.25;62.99;98993.19;5205783;27;94648;-78
2024/04/17 06:50:46;;;;;;;5.25;4.00;;;;;;;9.63;62.56;99042.81;5235802;27;94580;-79
2024/04/17 06:53:12;;;;;;;7.47;4.10;;;;;;;9.42;62.18;98993.19;5206427;26;94705;-78
2024/04/17 06:55:37;;;;;;;6.18;4.30;;;;;;;9.59;62.95;99034.25;5233404;27;97132;-78
2024/04/17 06:58:03;;;;;;;5.28;4.05;;;;;;;9.28;63.06;99003.53;5231196;26;94700;-78
2024/04/17 07:00:33;;;;;;;4.78;3.90;;;;;;;9.53;63.19;99050.28;5233987;27;94689;-79
2024/04/17 07:02:59;;;;;;;5.00;3.97;;;;;;;9.39;63.22;99042.25;5193724;27;94601;-79
2024/04/17 07:05:25;;;;;;;7.70;4.05;;;;;;;9.35;63.27;99054.66;5184465;27;94603;-78
2024/04/17 07:07:51;;;;;;;8.20;5.15;;;;;;;9.26;63.63;99045.50;5225239;26;94584;-79
2024/04/17 07:10:17;;;;;;;11.57;4.63;;;;;;;9.25;63.10;99037.69;5235993;26;94769;-79
2024/04/17 07:12:42;;;;;;;6.90;3.53;;;;;;;9.24;63.55;99031.63;5233314;26;93734;-78
2024/04/17 07:15:09;;;;;;;5.45;3.47;;;;;;;9.44;63.33;99048.97;5210851;27;97649;-77
2024/04/17 07:17:34;;;;;;;6.63;3.63;;;;;;;9.46;63.17;99036.66;5223709;26;94554;-79
2024/04/17 07:20:00;;;;;;;7.30;4.20;;;;;;;9.26;63.84;99019.31;5234666;27;94460;-78
2024/04/17 07:22:25;;;;;;;4.70;3.25;;;;;;;9.53;63.41;99052.91;5203521;27;93620;-78
2024/04/17 07:24:51;;;;;;;5.55;4.18;;;;;;;9.56;63.76;99050.13;5227841;26;94540;-78
2024/04/17 07:27:17;;;;;;;6.05;3.53;;;;;;;9.40;63.84;99029.09;5205116;27;97818;-79
2024/04/17 07:29:42;;;;;;;5.03;3.83;;;;;;;9.59;63.84;99059.63;5200346;27;95089;-81
2024/04/17 07:32:08;;;;;;;5.53;3.38;;;;;;;9.32;63.78;99020.78;5204094;27;94608;-79
2024/04/17 07:34:33;;;;;;;4.55;3.70;;;;;;;9.37;64.05;99041.50;5231753;26;94752;-79
2024/04/17 07:36:59;;;;;;;5.15;3.40;;;;;;;9.28;64.25;99027.94;5235185;26;94481;-80
2024/04/17 07:39:24;;;;;;;4.78;3.60;;;;;;;9.19;64.02;99027.53;5227904;26;94636;-78
2024/04/17 07:41:50;;;;;;;4.00;3.42;;;;;;;9.25;64.00;99038.56;5174590;27;93620;-80
2024/04/17 07:44:16;;;;;;;6.95;4.03;;;;;;;9.28;64.54;99055.91;5222860;27;97580;-79
2024/04/17 07:46:42;;;;;;;4.72;3.42;;;;;;;9.19;64.42;99041.50;5231741;26;95309;-80
2024/04/17 07:49:07;;;;;;;4.18;3.22;;;;;;;9.10;64.46;99056.78;5198343;27;94656;-79
2024/04/17 07:51:34;;;;;;;4.82;2.58;;;;;;;8.90;64.63;99024.56;5198505;27;94647;-79
2024/04/17 07:53:59;;;;;;;4.28;2.40;;;;;;;8.95;64.65;99035.66;5232542;26;94625;-79
2024/04/17 07:56:25;;;;;;;2.53;1.95;;;;;;;9.01;64.22;99035.34;5221787;26;94571;-78
2024/04/17 07:58:50;;;;;;;4.15;2.30;;;;;;;9.20;64.31;99061.50;5215247;27;94599;-79
2024/04/17 08:01:16;;;;;;;4.88;2.28;;;;;;;9.33;63.73;99064.38;5172361;27;94722;-79
2024/04/17 08:03:43;;;;;;;3.15;2.25;;;;;;;9.07;63.90;99026.34;5233155;26;94631;-79
2024/04/17 08:06:09;;;;;;;4.35;2.08;;;;;;;9.24;63.61;99049.94;5203472;27;97190;-79
2024/04/17 08:08:35;;;;;;;3.65;2.40;;;;;;;9.27;64.05;99048.94;5229715;26;94655;-78
2024/04/17 08:11:01;;;;;;;4.45;2.38;;;;;;;9.18;64.07;99046.78;5234175;26;94857;-80
2024/04/17 08:13:27;;;;;;;4.97;2.90;;;;;;;9.30;64.66;99072.38;5223287;26;95140;-79
2024/04/17 08:15:53;;;;;;;5.20;3.10;;;;;;;9.48;64.56;99083.72;5198947;26;97342;-79
2024/04/17 08:18:19;;;;;;;6.43;2.88;;;;;;;9.41;64.30;99071.84;5228013;26;94609;-79
2024/04/17 08:20:45;;;;;;;2.97;2.08;;;;;;;9.47;63.98;99082.03;5227211;26;94478;-78
2024/04/17 08:23:11;;;;;;;4.30;2.30;;;;;;;9.43;64.19;99083.13;5223354;26;94571;-78
2024/04/17 08:25:36;;;;;;;7.65;2.45;;;;;;;9.51;64.12;99087.06;5234336;26;94590;-78
2024/04/17 08:28:02;;;;;;;5.95;2.30;;;;;;;9.60;63.64;99091.00;5187008;27;94605;-79
2024/04/17 08:30:28;;;;;;;5.53;2.17;;;;;;;9.28;64.18;99074.25;5204076;27;94703;-81
2024/04/17 08:32:53;;;;;;;5.50;2.45;;;;;;;9.50;63.86;99103.69;5230459;26;94623;-78
2024/04/17 08:35:19;;;;;;;4.45;2.38;;;;;;;9.28;64.27;99076.84;5232993;27;94610;-74
2024/04/17 08:37:45;;;;;;;3.50;2.45;;;;;;;9.30;64.11;99093.31;5233864;26;95204;-74
2024/04/17 08:40:12;;;;;;;4.72;2.20;;;;;;;9.29;63.77;99117.81;5234153;26;93629;-74
2024/04/17 08:42:41;;;;;;;6.85;2.63;;;;;;;9.18;63.79;99115.72;5188405;27;96991;-74
2024/04/17 08:45:11;;;;;;;2.78;1.80;;;;;;;8.99;63.88;99092.19;5185657;27;94590;-73
2024/04/17 08:47:39;;;;;;;3.53;2.78;;;;;;;9.10;64.01;99130.91;5172102;27;94660;-77
2024/04/17 08:50:05;;;;;;;3.95;2.15;;;;;;;9.09;63.17;99117.91;5215794;26;94650;-77
2024/04/17 08:52:30;;;;;;;3.45;1.83;;;;;;;9.15;63.51;99134.19;5229326;27;94503;-77
2024/04/17 08:54:58;;;;;;;5.68;2.38;;;;;;;9.11;63.20;99137.03;5217056;27;94622;-77
2024/04/17 08:57:23;;;;;;;3.33;1.90;;;;;;;9.15;63.01;99149.88;5195936;27;94651;-78
2024/04/17 08:59:49;;;;;;;2.70;1.55;;;;;;;8.78;63.20;99112.31;5205969;27;94572;-77
2024/04/17 09:02:15;;;;;;;4.78;2.13;;;;;;;8.91;63.32;99145.81;5177108;27;97393;-78
2024/04/17 09:04:43;;;;;;;3.75;1.77;;;;;;;8.93;62.86;99117.78;5186563;27;97237;-76
2024/04/17 09:07:09;;;;;;;4.03;1.90;;;;;;;9.20;62.20;99131.34;5201527;27;94670;-78
2024/04/17 09:09:37;;;;;;;3.90;2.05;;;;;;;9.28;61.59;99152.81;5232473;26;94588;-77
2024/04/17 09:12:04;;;;;;;3.20;2.03;;;;;;;9.46;61.11;99138.81;5202668;27;94579;-78
2024/04/17 09:14:29;;;;;;;3.92;1.90;;;;;;;9.63;60.85;99143.25;5224359;27;97445;-77
2024/04/17 09:16:55;;;;;;;4.82;1.75;;;;;;;9.68;60.03;99116.81;5218430;27;94604;-77
2024/04/17 09:19:20;;;;;;;5.15;1.95;;;;;;;10.14;59.66;99157.28;5195334;27;94631;-77
2024/04/17 09:21:46;;;;;;;3.63;2.10;;;;;;;10.24;59.27;99152.44;5231872;27;94645;-78
2024/04/17 09:24:12;;;;;;;4.45;2.00;;;;;;;10.27;59.11;99168.06;5200503;27;94610;-75
2024/04/17 09:26:37;;;;;;;3.50;2.15;;;;;;;10.17;58.84;99164.16;5204989;27;94963;-76
2024/04/17 09:29:03;;;;;;;4.82;2.20;;;;;;;10.19;59.01;99167.56;5227564;27;94754;-79
2024/04/17 09:31:28;;;;;;;4.05;2.17;;;;;;;10.25;58.87;99153.28;5226790;26;94593;-76
2024/04/17 09:33:54;;;;;;;5.93;2.33;;;;;;;10.17;58.96;99133.53;5227767;27;94636;-76
2024/04/17 09:36:23;;;;;;;4.53;2.75;;;;;;;10.47;59.15;99171.41;5229660;27;94719;-76
2024/04/17 09:38:49;;;;;;;6.18;2.63;;;;;;;10.75;58.42;99173.44;5225346;27;94827;-76
2024/04/17 09:41:14;;;;;;;5.45;2.38;;;;;;;10.61;58.38;99151.38;5195835;27;97411;-76
2024/04/17 09:43:45;;;;;;;5.22;2.50;;;;;;;10.77;57.90;99171.59;5199901;27;97314;-76
2024/04/17 09:46:14;;;;;;;4.30;2.90;;;;;;;11.04;57.33;99153.50;5232890;26;94675;-76
2024/04/17 09:48:42;;;;;;;3.58;2.17;;;;;;;11.04;56.60;99182.41;5230012;26;94524;-78
2024/04/17 09:51:09;;;;;;;6.93;2.45;;;;;;;10.80;57.29;99189.81;5198475;27;97614;-78
2024/04/17 09:53:48;;;;;;;4.32;2.63;;;;;;;10.68;56.60;99169.47;5181071;27;97645;-76
2024/04/17 09:56:14;;;;;;;6.32;2.65;;;;;;;10.74;56.71;99151.59;5222168;26;94666;-76
2024/04/17 09:58:46;;;;;;;3.75;2.50;;;;;;;10.84;55.94;99158.03;5215324;26;94720;-76
2024/04/17 10:01:12;;;;;;;6.43;2.00;;;;;;;10.62;56.31;99176.72;5225829;26;94665;-76
2024/04/17 10:03:38;;;;;;;6.82;2.00;;;;;;;10.47;56.65;99192.41;5228680;26;96616;-76
2024/04/17 10:06:04;;;;;;;7.10;2.20;;;;;;;10.38;56.55;99172.72;5228090;26;95022;-76
2024/04/17 10:08:31;;;;;;;4.18;1.83;;;;;;;10.26;57.69;99187.28;5214394;26;93626;-76
2024/04/17 10:10:57;;;;;;;4.55;2.38;;;;;;;10.22;58.30;99198.03;5194505;27;97095;-79
2024/04/17 10:13:26;;;;;;;4.65;2.22;;;;;;;10.14;59.02;99199.25;5215722;26;96096;-80
2024/04/17 10:15:52;;;;;;;10.40;2.35;;;;;;;9.98;59.24;99161.63;5226909;26;94617;-78
2024/04/17 10:18:19;;;;;;;5.47;2.25;;;;;;;10.17;59.22;99193.00;5172288;27;94674;-79
2024/04/17 10:20:44;;;;;;;9.85;2.72;;;;;;;10.07;58.92;99184.75;5228272;26;95210;-78
2024/04/17 10:23:12;;;;;;;7.63;2.53;;;;;;;10.11;59.24;99191.53;5199303;26;97745;-78
2024/04/17 10:25:54;;;;;;;4.15;2.00;;;;;;;10.02;59.03;99173.66;5224712;26;94635;-77
2024/04/17 10:28:21;;;;;;;7.82;2.00;;;;;;;9.91;59.47;99210.88;5172856;27;94490;-78
2024/04/17 10:30:47;;;;;;;5.18;2.28;;;;;;;9.97;58.91;99207.94;5196234;27;97033;-78
2024/04/17 10:33:34;;;;;;;5.90;2.20;;;;;;;10.11;59.04;99223.00;5193748;27;95745;-77
2024/04/17 10:36:01;;;;;;;14.80;2.85;;;;;;;10.10;58.26;99189.00;5180910;27;94649;-76
2024/04/17 10:38:29;;;;;;;10.70;2.42;;;;;;;10.26;58.32;99221.38;5221907;27;94755;-77
2024/04/17 10:40:56;;;;;;;5.20;2.33;;;;;;;10.02;58.57;99199.88;5221654;27;94737;-76
2024/04/17 10:43:25;;;;;;;6.05;2.22;;;;;;;9.97;58.11;99202.69;5196731;27;97444;-77
2024/04/17 10:46:07;;;;;;;7.60;2.88;;;;;;;9.91;58.46;99236.25;5201118;27;94818;-76
2024/04/17 10:48:46;;;;;;;4.72;2.00;;;;;;;9.80;58.87;99207.91;5221561;27;93509;-77
2024/04/17 10:51:15;;;;;;;9.10;2.33;;;;;;;9.95;58.79;99240.44;5226851;27;93523;-73
2024/04/17 10:53:45;;;;;;;5.13;2.70;;;;;;;9.96;58.82;99234.25;5228466;27;94646;-75
2024/04/17 10:56:21;;;;;;;5.00;2.38;;;;;;;10.06;58.27;99229.41;5199606;27;94560;-75
2024/04/17 10:58:48;;;;;;;9.65;2.38;;;;;;;10.19;58.02;99233.13;5202398;27;94709;-74
2024/04/17 11:01:13;;;;;;;9.63;2.42;;;;;;;10.34;57.72;99240.25;5200691;27;94560;-76
2024/04/17 11:03:39;;;;;;;6.47;2.45;;;;;;;10.23;57.89;99213.66;5232388;26;94734;-75
2024/04/17 11:06:07;;;;;;;4.97;2.60;;;;;;;10.42;57.96;99245.13;5221017;27;94681;-73
2024/04/17 11:08:33;;;;;;;4.53;2.70;;;;;;;10.14;57.50;99199.25;5224935;26;95325;-74
2024/04/17 11:10:58;;;;;;;4.68;2.30;;;;;;;10.38;57.95;99239.19;5218203;27;97585;-75
2024/04/17 11:13:24;;;;;;;6.47;2.22;;;;;;;10.34;58.07;99239.41;5228929;27;95264;-74
2024/04/17 11:15:49;;;;;;;4.55;2.70;;;;;;;10.12;58.29;99216.84;5198085;26;94648;-74
2024/04/17 11:18:16;;;;;;;6.05;2.42;;;;;;;10.34;58.53;99255.16;5223685;26;94733;-74
2024/04/17 11:20:42;;;;;;;4.03;2.03;;;;;;;10.16;58.61;99242.00;5221025;26;94747;-73
2024/04/17 11:23:08;;;;;;;2.85;1.88;;;;;;;10.16;58.40;99264.75;5227209;26;94503;-73
2024/04/17 11:25:37;;;;;;;4.22;2.03;;;;;;;9.94;58.98;99263.16;5198768;27;94715;-75
2024/04/17 11:28:03;;;;;;;4.20;1.98;;;;;;;9.67;59.01;99223.38;5221873;26;94646;-73
2024/04/17 11:30:28;;;;;;;2.40;1.85;;;;;;;9.88;58.59;99263.44;5197014;26;97069;-73
2024/04/17 11:32:54;;;;;;;3.75;2.00;;;;;;;9.92;58.20;99267.63;5229426;26;95200;-73
2024/04/17 11:35:20;;;;;;;3.50;1.90;;;;;;;9.76;59.44;99282.38;5228115;26;96119;-73